Time;durP1;ratioP1;P1;durP2;ratioP2;P2;SDS_P1;SDS_P2;PMS_P1;PMS_P2;Temp;Humidity;BMP_temperature;BMP_pressure;BME280_temperature;BME280_humidity;BME280_pressure;Samples;Min_cycle;Max_cycle;Signal;HPM_P1;HPM_P2
2023/02/19 00:00:31;;;;;;;1.52;1.42;;;16.10;56.80;;;;;;4997285;28;20030;-82
2023/02/19 00:02:57;;;;;;;2.03;1.52;;;16.00;57.10;;;;;;4997213;28;20030;-82
2023/02/19 00:05:23;;;;;;;2.10;1.30;;;16.00;57.40;;;;;;4992038;28;20036;-82
2023/02/19 00:07:49;;;;;;;2.47;1.27;;;16.00;57.40;;;;;;5016890;28;20033;-82
2023/02/19 00:10:15;;;;;;;1.27;1.13;;;16.00;57.60;;;;;;5016760;28;20127;-81
2023/02/19 00:12:40;;;;;;;1.48;1.20;;;15.90;57.80;;;;;;5016846;28;20030;-81
2023/02/19 00:15:06;;;;;;;1.75;1.17;;;15.90;58.10;;;;;;4998634;28;20062;-82
2023/02/19 00:17:32;;;;;;;1.52;1.27;;;15.80;58.50;;;;;;5017514;28;20030;-82
2023/02/19 00:19:58;;;;;;;2.35;1.00;;;15.80;58.70;;;;;;5016644;28;20351;-81
2023/02/19 00:22:23;;;;;;;3.05;1.30;;;15.80;58.70;;;;;;5016755;28;20490;-82
2023/02/19 00:24:50;;;;;;;1.23;1.10;;;15.70;58.80;;;;;;4999292;28;20384;-82
2023/02/19 00:27:15;;;;;;;3.70;1.27;;;15.70;59.20;;;;;;5016680;28;20021;-83
2023/02/19 00:29:41;;;;;;;1.92;1.08;;;15.60;59.50;;;;;;4999561;28;20106;-83
2023/02/19 00:32:07;;;;;;;1.65;1.10;;;15.60;59.40;;;;;;4999251;28;20025;-83
2023/02/19 00:34:33;;;;;;;1.65;1.20;;;15.60;59.70;;;;;;5016200;28;20084;-83
2023/02/19 00:36:59;;;;;;;1.60;1.23;;;15.60;59.90;;;;;;4998774;28;20361;-82
2023/02/19 00:39:24;;;;;;;1.20;1.10;;;15.50;59.80;;;;;;4995785;28;20030;-81
2023/02/19 00:41:50;;;;;;;1.50;1.20;;;15.50;60.10;;;;;;4997436;28;20026;-82
2023/02/19 00:44:16;;;;;;;2.35;1.38;;;15.50;60.40;;;;;;4989654;28;20510;-83
2023/02/19 00:46:45;;;;;;;1.90;1.52;;;15.50;60.40;;;;;;5016499;28;20037;-82
2023/02/19 00:49:20;;;;;;;1.80;1.50;;;15.40;60.50;;;;;;4998707;28;20021;-82
2023/02/19 00:51:46;;;;;;;2.88;2.17;;;15.50;60.50;;;;;;5016158;28;20372;-81
2023/02/19 00:54:12;;;;;;;3.92;2.35;;;15.40;60.50;;;;;;5022630;28;20018;-81
2023/02/19 00:56:38;;;;;;;2.65;2.00;;;15.40;61.20;;;;;;5004095;28;20070;-82
2023/02/19 00:59:04;;;;;;;1.90;1.70;;;15.40;61.60;;;;;;5022406;28;20030;-82
2023/02/19 01:01:30;;;;;;;3.22;2.08;;;15.30;61.70;;;;;;5016829;28;20121;-82
2023/02/19 01:03:56;;;;;;;2.45;2.03;;;15.30;62.20;;;;;;4998070;28;20437;-82
2023/02/19 01:06:22;;;;;;;4.65;2.33;;;15.20;62.50;;;;;;5016487;28;20033;-81
2023/02/19 01:08:49;;;;;;;3.88;2.53;;;15.20;62.50;;;;;;5016104;28;20026;-83
2023/02/19 01:11:15;;;;;;;3.38;2.17;;;15.10;62.90;;;;;;4998473;28;20026;-82
2023/02/19 01:13:42;;;;;;;3.47;2.92;;;15.10;63.10;;;;;;5016458;28;20022;-81
2023/02/19 01:16:09;;;;;;;3.42;2.40;;;15.10;63.10;;;;;;4998649;28;20190;-82
2023/02/19 01:18:36;;;;;;;6.18;3.22;;;15.10;63.40;;;;;;5016042;28;20084;-82
2023/02/19 01:21:11;;;;;;;4.45;2.50;;;15.00;63.50;;;;;;5015856;28;20049;-81
2023/02/19 01:23:37;;;;;;;3.13;2.40;;;15.00;63.70;;;;;;4999347;28;20026;-81
2023/02/19 01:26:10;;;;;;;3.03;2.20;;;15.00;64.00;;;;;;4997828;28;20037;-81
2023/02/19 01:28:35;;;;;;;3.08;2.78;;;14.90;64.20;;;;;;5015433;28;20030;-81
2023/02/19 01:31:03;;;;;;;4.10;2.25;;;14.90;64.40;;;;;;5015376;28;20475;-81
2023/02/19 01:33:29;;;;;;;2.97;2.47;;;14.90;64.50;;;;;;5014648;28;20110;-82
2023/02/19 01:35:55;;;;;;;2.78;2.25;;;14.80;64.70;;;;;;4997572;28;20101;-82
2023/02/19 01:38:21;;;;;;;4.18;2.50;;;14.80;65.00;;;;;;4997701;28;20032;-81
2023/02/19 01:41:04;;;;;;;3.65;2.40;;;14.80;65.20;;;;;;5015401;28;20124;-82
2023/02/19 01:43:32;;;;;;;4.28;2.63;;;14.80;65.40;;;;;;4997204;28;20042;-81
2023/02/19 01:45:58;;;;;;;3.13;2.72;;;14.80;65.60;;;;;;5015012;28;20022;-81
2023/02/19 01:48:31;;;;;;;3.88;2.67;;;14.70;65.80;;;;;;4997468;28;20391;-82
2023/02/19 01:51:09;;;;;;;2.55;2.22;;;14.70;66.10;;;;;;5014840;28;20479;-82
2023/02/19 01:53:45;;;;;;;4.03;2.03;;;14.60;66.20;;;;;;5015152;28;20021;-81
2023/02/19 01:56:15;;;;;;;2.45;2.10;;;14.60;66.30;;;;;;5015095;28;20048;-81
2023/02/19 01:58:41;;;;;;;5.10;2.65;;;14.60;66.30;;;;;;5014828;28;20080;-82
2023/02/19 02:01:07;;;;;;;2.28;1.98;;;14.50;66.50;;;;;;5014805;28;20026;-82
2023/02/19 02:03:36;;;;;;;2.47;1.77;;;14.50;66.40;;;;;;5001846;28;20132;-81
2023/02/19 02:06:08;;;;;;;3.10;2.03;;;14.60;66.40;;;;;;5019898;28;20022;-82
2023/02/19 02:11:19;;;;;;;3.38;2.20;;;14.60;66.20;;;;;;5019258;28;20403;-83
2023/02/19 02:13:45;;;;;;;5.43;2.20;;;14.60;66.10;;;;;;5014898;28;20018;-83
2023/02/19 02:16:40;;;;;;;3.92;2.15;;;14.60;66.10;;;;;;5014839;28;20101;-82
2023/02/19 02:19:18;;;;;;;2.38;1.80;;;14.60;66.10;;;;;;4997293;28;20403;-81
2023/02/19 02:22:02;;;;;;;3.30;2.22;;;14.60;66.00;;;;;;5014834;28;20037;-82
2023/02/19 02:24:59;;;;;;;5.03;2.50;;;14.60;66.10;;;;;;4996860;28;20025;-82
2023/02/19 02:27:41;;;;;;;3.65;2.38;;;14.50;66.10;;;;;;5014524;28;20475;-82
2023/02/19 02:30:22;;;;;;;12.68;2.50;;;14.50;66.20;;;;;;5014282;28;20041;-82
2023/02/19 02:33:26;;;;;;;3.17;2.53;;;14.60;66.10;;;;;;4995810;28;20033;-82
2023/02/19 02:35:53;;;;;;;4.13;2.88;;;14.60;66.10;;;;;;5014205;28;20037;-82
2023/02/19 02:38:23;;;;;;;4.53;2.80;;;14.60;65.90;;;;;;4996309;28;20025;-82
2023/02/19 02:40:50;;;;;;;5.35;2.40;;;14.60;66.10;;;;;;4996223;28;20029;-82
2023/02/19 02:43:15;;;;;;;2.70;2.22;;;14.50;66.10;;;;;;5014182;28;20026;-83
2023/02/19 02:45:42;;;;;;;3.30;2.35;;;14.60;66.30;;;;;;5013820;28;20149;-83
2023/02/19 02:48:29;;;;;;;3.63;2.50;;;14.50;66.20;;;;;;5013706;28;20025;-81
2023/02/19 02:51:10;;;;;;;4.55;2.78;;;14.60;66.00;;;;;;4996208;28;20026;-83
2023/02/19 02:56:25;;;;;;;7.13;2.33;;;14.50;65.90;;;;;;5013651;28;20037;-82
2023/02/19 02:58:53;;;;;;;4.30;2.78;;;14.50;66.10;;;;;;4996112;28;20087;-82
2023/02/19 03:07:58;;;;;;;4.97;2.58;;;14.50;66.40;;;;;;5013935;28;20036;-82
2023/02/19 03:10:32;;;;;;;3.92;2.53;;;14.50;66.30;;;;;;5013930;28;20022;-82
2023/02/19 03:21:27;;;;;;;4.60;2.65;;;14.60;66.20;;;;;;5013228;28;20060;-81
2023/02/19 03:26:42;;;;;;;6.50;3.00;;;14.50;66.50;;;;;;5013360;28;20033;-81
2023/02/19 03:29:22;;;;;;;4.38;2.80;;;14.50;66.60;;;;;;5013255;28;20018;-81
2023/02/19 03:32:17;;;;;;;4.75;2.92;;;14.40;66.60;;;;;;4995605;28;20022;-81
2023/02/19 03:34:52;;;;;;;4.72;2.90;;;14.40;66.50;;;;;;5009028;28;20443;-82
2023/02/19 03:37:25;;;;;;;3.85;2.78;;;14.40;66.70;;;;;;4976168;28;20081;-82
2023/02/19 03:39:53;;;;;;;4.38;2.92;;;14.40;66.90;;;;;;4983863;28;20025;-81
2023/02/19 03:42:34;;;;;;;6.85;3.30;;;14.30;66.90;;;;;;5013263;28;20037;-82
2023/02/19 03:45:14;;;;;;;4.25;2.78;;;14.30;67.10;;;;;;4995541;28;20026;-80
2023/02/19 03:48:01;;;;;;;5.30;3.70;;;14.30;67.20;;;;;;4995459;28;20037;-82
2023/02/19 03:50:42;;;;;;;3.67;2.83;;;14.20;67.20;;;;;;4995487;28;20022;-82
2023/02/19 03:53:30;;;;;;;8.15;3.35;;;14.30;67.20;;;;;;4995396;28;20052;-81
2023/02/19 03:56:04;;;;;;;5.22;3.05;;;14.20;67.10;;;;;;5012941;28;20108;-82
2023/02/19 03:58:36;;;;;;;5.90;2.90;;;14.20;67.10;;;;;;4995286;28;20029;-81
2023/02/19 04:01:17;;;;;;;4.13;3.22;;;14.30;67.20;;;;;;5012973;28;20054;-81
2023/02/19 04:04:03;;;;;;;3.95;2.78;;;14.30;67.20;;;;;;5012798;28;20045;-81
2023/02/19 04:06:31;;;;;;;5.28;2.85;;;14.20;67.10;;;;;;4997314;28;20034;-80
2023/02/19 04:09:00;;;;;;;5.32;3.13;;;14.30;67.20;;;;;;4999249;28;20026;-81
2023/02/19 04:11:29;;;;;;;7.90;3.58;;;14.20;67.10;;;;;;5016233;28;20026;-80
2023/02/19 04:14:03;;;;;;;6.03;3.00;;;14.30;67.20;;;;;;5018944;28;20028;-81
2023/02/19 04:16:32;;;;;;;3.78;2.88;;;14.30;67.30;;;;;;5017642;28;20014;-81
2023/02/19 04:19:04;;;;;;;5.88;3.25;;;14.30;67.20;;;;;;5016608;28;20014;-81
2023/02/19 04:21:32;;;;;;;4.40;3.25;;;14.30;67.20;;;;;;5016584;28;20069;-80
2023/02/19 04:24:06;;;;;;;4.68;2.63;;;14.20;67.20;;;;;;5016640;28;20053;-81
2023/02/19 04:26:33;;;;;;;4.75;3.05;;;14.20;67.20;;;;;;4999108;28;20030;-81
2023/02/19 04:28:59;;;;;;;5.32;3.03;;;14.30;67.20;;;;;;5016462;28;20050;-80
2023/02/19 04:31:26;;;;;;;4.20;3.05;;;14.20;67.10;;;;;;5017041;28;20363;-81
2023/02/19 04:33:52;;;;;;;5.47;3.92;;;14.30;67.20;;;;;;5015587;28;20022;-83
2023/02/19 04:36:18;;;;;;;7.80;3.72;;;14.20;67.30;;;;;;4980457;28;20038;-82
2023/02/19 04:38:44;;;;;;;4.40;3.25;;;14.20;67.30;;;;;;5006562;28;20025;-81
2023/02/19 04:41:10;;;;;;;10.15;3.25;;;14.20;67.50;;;;;;4998493;28;20065;-81
2023/02/19 04:43:35;;;;;;;5.80;3.10;;;14.20;67.50;;;;;;5015953;28;20128;-82
2023/02/19 04:46:01;;;;;;;5.63;3.25;;;14.20;67.50;;;;;;4998421;28;20434;-81
2023/02/19 04:48:28;;;;;;;4.97;3.33;;;14.20;67.60;;;;;;4998330;28;20030;-82
2023/02/19 04:50:54;;;;;;;7.30;2.97;;;14.20;67.60;;;;;;5016077;28;20104;-81
2023/02/19 04:53:19;;;;;;;4.07;2.70;;;14.20;67.60;;;;;;4998388;28;20058;-82
2023/02/19 04:55:46;;;;;;;7.40;3.25;;;14.20;67.70;;;;;;4998281;28;20061;-82
2023/02/19 04:58:13;;;;;;;6.10;3.58;;;14.10;67.50;;;;;;4998444;28;20044;-81
2023/02/19 05:00:39;;;;;;;4.90;3.00;;;14.20;67.60;;;;;;5016181;28;20034;-81
2023/02/19 05:03:05;;;;;;;4.47;2.72;;;14.20;67.50;;;;;;4997795;28;20155;-81
2023/02/19 05:05:30;;;;;;;6.95;3.58;;;14.20;67.60;;;;;;5016079;28;20033;-82
2023/02/19 05:07:56;;;;;;;6.72;2.50;;;14.10;67.60;;;;;;5015655;28;20041;-81
2023/02/19 05:10:22;;;;;;;6.07;3.08;;;14.20;67.50;;;;;;5015884;28;20064;-81
2023/02/19 05:12:48;;;;;;;5.28;3.05;;;14.10;67.30;;;;;;5015741;28;20026;-83
2023/02/19 05:15:13;;;;;;;3.70;3.10;;;14.20;67.30;;;;;;4998156;28;20372;-82
2023/02/19 05:17:39;;;;;;;4.32;3.20;;;14.10;67.40;;;;;;4997454;28;20029;-83
2023/02/19 05:20:05;;;;;;;3.28;2.53;;;14.10;68.20;;;;;;4997228;28;20533;-83
2023/02/19 05:22:31;;;;;;;3.85;2.42;;;14.10;67.40;;;;;;5013934;28;20108;-82
2023/02/19 05:24:57;;;;;;;3.92;2.70;;;14.10;67.30;;;;;;5014479;28;20037;-82
2023/02/19 05:27:23;;;;;;;3.35;2.33;;;14.10;67.20;;;;;;5015192;28;20112;-82
2023/02/19 05:29:49;;;;;;;2.22;1.80;;;14.10;67.10;;;;;;4997817;28;20423;-82
2023/02/19 05:32:14;;;;;;;3.28;2.30;;;14.20;67.10;;;;;;5013915;28;20091;-82
2023/02/19 05:34:40;;;;;;;4.05;1.98;;;14.20;66.80;;;;;;4983781;28;20019;-82
2023/02/19 05:37:06;;;;;;;2.75;1.92;;;14.20;66.70;;;;;;4994413;28;20033;-81
2023/02/19 05:39:32;;;;;;;3.35;1.73;;;14.20;66.90;;;;;;5013921;28;20121;-83
2023/02/19 05:41:57;;;;;;;2.42;1.70;;;14.20;66.90;;;;;;5014729;28;20471;-81
2023/02/19 05:44:24;;;;;;;2.72;1.60;;;14.20;67.00;;;;;;5014792;28;20084;-81
2023/02/19 05:46:50;;;;;;;3.20;1.75;;;14.30;66.90;;;;;;4997180;28;20026;-81
2023/02/19 05:49:16;;;;;;;3.30;2.03;;;14.30;66.90;;;;;;4997175;28;20501;-82
2023/02/19 05:51:42;;;;;;;2.30;1.75;;;14.30;66.70;;;;;;4997199;28;20022;-82
2023/02/19 05:54:09;;;;;;;3.33;1.73;;;14.40;66.70;;;;;;4997511;28;20081;-82
2023/02/19 05:56:37;;;;;;;4.10;1.70;;;14.30;66.60;;;;;;4997216;28;20021;-81
2023/02/19 05:59:07;;;;;;;8.30;2.45;;;14.30;66.70;;;;;;5014267;28;20064;-81
2023/02/19 06:01:34;;;;;;;3.72;2.20;;;14.30;66.70;;;;;;4996981;28;20529;-81
2023/02/19 06:04:00;;;;;;;2.17;1.95;;;14.30;66.90;;;;;;5014132;28;20037;-82
2023/02/19 06:06:26;;;;;;;2.65;1.73;;;14.30;67.00;;;;;;4996846;28;20022;-81
2023/02/19 06:08:52;;;;;;;2.38;1.70;;;14.30;67.00;;;;;;5014139;28;20029;-81
2023/02/19 06:11:18;;;;;;;5.88;2.30;;;14.30;67.00;;;;;;5014718;28;20100;-82
2023/02/19 06:13:45;;;;;;;5.78;1.80;;;14.20;66.90;;;;;;5014255;28;20022;-82
2023/02/19 06:16:11;;;;;;;3.25;2.20;;;14.30;67.10;;;;;;5014288;28;20037;-82
2023/02/19 06:18:39;;;;;;;3.90;2.17;;;14.20;67.00;;;;;;5014238;28;20084;-81
2023/02/19 06:21:08;;;;;;;3.78;2.03;;;14.30;67.00;;;;;;5014318;28;20115;-81
2023/02/19 06:23:34;;;;;;;3.65;2.03;;;14.30;66.90;;;;;;4996628;28;20084;-81
2023/02/19 06:26:14;;;;;;;3.08;2.03;;;14.30;66.70;;;;;;5013880;28;20402;-82
2023/02/19 06:28:41;;;;;;;3.17;1.70;;;14.40;66.50;;;;;;4996493;28;20450;-81
2023/02/19 06:31:08;;;;;;;5.88;3.08;;;14.40;66.40;;;;;;5013831;28;20025;-82
2023/02/19 06:33:34;;;;;;;3.58;2.20;;;14.40;66.30;;;;;;5012655;28;20030;-82
2023/02/19 06:36:02;;;;;;;6.57;2.05;;;14.40;66.20;;;;;;5005085;28;20025;-81
2023/02/19 06:38:29;;;;;;;3.85;1.67;;;14.40;66.10;;;;;;5014027;28;20025;-82
2023/02/19 06:40:58;;;;;;;2.80;2.05;;;14.40;66.00;;;;;;5013920;28;20379;-81
2023/02/19 06:43:24;;;;;;;1.98;1.55;;;14.40;65.90;;;;;;4996720;28;20052;-81
2023/02/19 06:45:50;;;;;;;3.05;2.05;;;14.40;65.70;;;;;;5014003;28;20555;-82
2023/02/19 06:48:16;;;;;;;3.22;1.75;;;14.50;65.70;;;;;;5013812;28;20498;-81
2023/02/19 06:50:41;;;;;;;3.70;1.92;;;14.50;65.50;;;;;;5013971;28;20379;-82
2023/02/19 06:53:08;;;;;;;6.50;1.88;;;14.50;65.30;;;;;;5013730;28;20022;-81
2023/02/19 06:55:34;;;;;;;6.15;1.95;;;14.50;65.10;;;;;;5013906;28;20041;-83
2023/02/19 06:58:00;;;;;;;2.08;1.60;;;14.50;65.20;;;;;;4995918;28;20502;-82
2023/02/19 07:00:26;;;;;;;2.47;1.50;;;14.50;65.20;;;;;;5013517;28;20041;-82
2023/02/19 07:02:55;;;;;;;5.38;1.80;;;14.50;65.20;;;;;;5013609;28;20030;-83
2023/02/19 07:05:22;;;;;;;6.82;1.80;;;14.50;65.20;;;;;;4996015;28;20033;-82
2023/02/19 07:07:48;;;;;;;1.98;1.45;;;14.50;65.20;;;;;;5013438;28;20026;-82
2023/02/19 07:10:15;;;;;;;4.50;2.05;;;14.50;65.30;;;;;;4995723;28;20022;-81
2023/02/19 07:12:41;;;;;;;3.75;2.15;;;14.50;65.20;;;;;;4995806;28;20060;-82
2023/02/19 07:15:07;;;;;;;3.33;1.70;;;14.60;65.10;;;;;;5013370;28;20050;-82
2023/02/19 07:17:33;;;;;;;3.80;1.83;;;14.60;65.00;;;;;;4995698;28;20025;-81
2023/02/19 07:19:59;;;;;;;2.60;1.70;;;14.60;64.90;;;;;;5013279;28;20046;-82
2023/02/19 07:22:25;;;;;;;2.85;2.13;;;14.60;65.00;;;;;;5013528;28;20052;-82
2023/02/19 07:24:51;;;;;;;3.92;1.88;;;14.60;64.90;;;;;;4995764;28;20025;-82
2023/02/19 07:27:17;;;;;;;1.80;1.42;;;14.60;64.80;;;;;;5012961;28;20524;-82
2023/02/19 07:29:43;;;;;;;2.63;1.88;;;14.60;64.80;;;;;;5013239;28;20451;-82
2023/02/19 07:32:08;;;;;;;5.70;1.90;;;14.70;64.60;;;;;;5013188;28;20030;-81
2023/02/19 07:34:34;;;;;;;2.85;1.85;;;14.70;64.50;;;;;;5012910;28;20072;-82
2023/02/19 07:37:00;;;;;;;1.85;1.45;;;14.70;64.20;;;;;;5013131;28;20414;-81
2023/02/19 07:39:26;;;;;;;3.22;1.55;;;14.80;64.10;;;;;;4997887;28;20503;-81
2023/02/19 07:41:52;;;;;;;3.47;1.65;;;14.80;64.00;;;;;;5016715;28;20056;-80
2023/02/19 07:44:17;;;;;;;4.53;1.70;;;14.80;63.80;;;;;;5017066;28;20018;-82
2023/02/19 07:46:44;;;;;;;3.33;2.30;;;14.90;63.80;;;;;;5017438;28;20406;-81
2023/02/19 07:49:10;;;;;;;3.65;1.88;;;14.80;63.50;;;;;;5019765;28;20044;-82
2023/02/19 07:51:38;;;;;;;3.50;1.75;;;14.90;63.50;;;;;;5000662;28;20026;-81
2023/02/19 07:54:04;;;;;;;5.30;2.00;;;14.90;63.40;;;;;;5017766;28;20037;-82
2023/02/19 07:56:30;;;;;;;3.17;2.20;;;14.90;63.20;;;;;;5017232;28;20022;-83
2023/02/19 07:58:56;;;;;;;3.00;2.03;;;14.90;63.10;;;;;;5025605;28;20053;-81
2023/02/19 08:04:09;;;;;;;3.75;2.10;;;14.90;63.00;;;;;;5011536;28;20064;-82
2023/02/19 08:06:35;;;;;;;2.58;1.70;;;14.90;63.00;;;;;;4987138;28;20030;-82
2023/02/19 08:09:02;;;;;;;7.07;1.75;;;14.90;63.20;;;;;;4979994;28;20023;-82
2023/02/19 08:14:12;;;;;;;;;;;14.90;63.40;;;;;;4998002;28;20125;-82
2023/02/19 08:16:38;;;;;;;1.98;1.45;;;14.90;63.40;;;;;;5016309;28;20390;-82
2023/02/19 08:19:04;;;;;;;2.63;1.40;;;14.90;63.20;;;;;;5016656;28;20104;-81
2023/02/19 08:21:30;;;;;;;2.63;1.60;;;14.80;63.30;;;;;;4998935;28;20049;-82
2023/02/19 08:23:56;;;;;;;3.55;2.20;;;14.80;63.40;;;;;;5016786;28;20022;-81
2023/02/19 08:26:21;;;;;;;4.25;1.88;;;14.80;63.70;;;;;;5016841;28;20026;-81
2023/02/19 08:28:47;;;;;;;3.78;1.90;;;14.80;63.40;;;;;;5016215;28;20394;-81
2023/02/19 08:31:13;;;;;;;2.85;1.65;;;14.80;63.70;;;;;;4997399;28;20045;-81
2023/02/19 08:33:39;;;;;;;4.57;1.98;;;14.80;64.60;;;;;;4993761;28;20542;-82
2023/02/19 08:36:07;;;;;;;3.88;2.00;;;14.80;65.20;;;;;;4998863;28;20022;-82
2023/02/19 08:38:35;;;;;;;2.63;1.35;;;14.70;65.90;;;;;;4998706;28;20084;-81
2023/02/19 08:41:09;;;;;;;1.88;1.40;;;14.60;65.70;;;;;;4998784;28;20041;-82
2023/02/19 08:43:36;;;;;;;2.00;1.65;;;14.50;66.10;;;;;;5016270;28;20037;-81
2023/02/19 08:46:02;;;;;;;1.80;1.33;;;14.50;66.10;;;;;;5016294;28;20026;-82
2023/02/19 08:48:28;;;;;;;2.58;1.77;;;14.40;66.50;;;;;;5016195;28;20029;-82
2023/02/19 08:51:00;;;;;;;2.53;1.40;;;14.40;66.80;;;;;;4998186;28;20033;-82
2023/02/19 08:53:26;;;;;;;2.92;1.70;;;14.30;67.00;;;;;;4998592;28;20080;-81
2023/02/19 08:55:52;;;;;;;1.95;1.15;;;14.30;67.10;;;;;;4998529;28;20022;-81
2023/02/19 08:58:18;;;;;;;3.55;1.70;;;14.30;66.90;;;;;;4992024;28;20114;-82
2023/02/19 09:00:44;;;;;;;1.88;1.17;;;14.30;66.70;;;;;;4995007;28;20082;-81
2023/02/19 09:03:10;;;;;;;1.15;0.90;;;14.30;66.10;;;;;;4996298;28;20030;-81
2023/02/19 09:05:37;;;;;;;3.72;0.80;;;14.40;66.50;;;;;;4996303;28;20034;-82
2023/02/19 09:08:03;;;;;;;0.80;0.60;;;14.30;65.70;;;;;;4996048;28;20471;-82
2023/02/19 09:10:29;;;;;;;0.80;0.60;;;14.30;64.90;;;;;;4996314;28;20056;-82
2023/02/19 09:12:55;;;;;;;1.48;0.82;;;14.30;64.60;;;;;;4996796;28;20019;-82
2023/02/19 09:15:21;;;;;;;0.85;0.68;;;14.30;63.90;;;;;;4998866;28;20038;-81
2023/02/19 09:17:51;;;;;;;0.60;0.60;;;14.30;63.90;;;;;;4997847;28;20025;-81
2023/02/19 09:20:18;;;;;;;0.70;0.60;;;14.30;63.20;;;;;;5015361;28;20058;-81
2023/02/19 09:22:43;;;;;;;1.15;0.50;;;14.30;62.50;;;;;;4997857;28;20123;-81
2023/02/19 09:25:09;;;;;;;1.08;0.90;;;14.30;62.40;;;;;;5015339;28;20030;-81
2023/02/19 09:27:35;;;;;;;0.50;0.50;;;14.40;62.50;;;;;;5014893;28;20022;-83
2023/02/19 09:30:01;;;;;;;1.10;0.80;;;14.40;62.60;;;;;;5015052;28;20094;-82
2023/02/19 09:32:30;;;;;;;1.40;0.80;;;14.50;62.20;;;;;;5015023;28;20029;-83
2023/02/19 09:34:56;;;;;;;2.13;0.80;;;14.60;62.40;;;;;;5015066;28;20129;-82
2023/02/19 09:37:26;;;;;;;1.02;0.90;;;14.60;62.10;;;;;;4997513;28;20081;-80
2023/02/19 09:39:53;;;;;;;1.10;0.73;;;14.80;61.90;;;;;;5015016;28;20102;-82
2023/02/19 09:42:23;;;;;;;4.20;0.80;;;14.90;61.80;;;;;;5014938;28;20050;-81
2023/02/19 09:44:53;;;;;;;3.50;0.85;;;14.90;61.10;;;;;;5014927;28;20029;-81
2023/02/19 09:47:21;;;;;;;0.82;0.70;;;15.00;61.00;;;;;;5015270;28;20030;-82
2023/02/19 09:49:50;;;;;;;1.05;0.80;;;15.00;60.70;;;;;;5015164;28;20022;-82
2023/02/19 09:52:34;;;;;;;0.88;0.73;;;15.10;60.50;;;;;;4997358;28;20022;-82
2023/02/19 09:55:12;;;;;;;0.80;0.77;;;15.20;60.30;;;;;;5014867;28;20030;-82
2023/02/19 09:57:39;;;;;;;1.00;0.70;;;15.30;60.10;;;;;;5014002;28;20045;-82
2023/02/19 10:00:06;;;;;;;0.90;0.70;;;15.40;60.10;;;;;;5014821;28;20391;-82
2023/02/19 10:02:33;;;;;;;0.98;0.70;;;15.50;59.10;;;;;;4996941;28;20068;-82
2023/02/19 10:05:00;;;;;;;1.50;0.73;;;15.60;58.40;;;;;;5014532;28;20026;-82
2023/02/19 10:07:40;;;;;;;1.10;0.50;;;15.60;58.20;;;;;;5014694;28;20026;-82
2023/02/19 10:10:12;;;;;;;1.40;0.60;;;15.70;57.70;;;;;;5014636;28;20014;-82
2023/02/19 10:12:44;;;;;;;0.40;0.40;;;15.80;57.60;;;;;;4996987;28;20033;-82
2023/02/19 10:15:21;;;;;;;0.85;0.55;;;15.90;57.40;;;;;;5014621;28;20049;-83
2023/02/19 10:17:46;;;;;;;1.10;0.40;;;15.90;56.80;;;;;;5014620;28;20030;-82
2023/02/19 10:20:16;;;;;;;0.70;0.60;;;15.90;56.60;;;;;;4996399;28;20049;-82
2023/02/19 10:22:43;;;;;;;2.10;0.50;;;15.90;56.60;;;;;;4996865;28;20057;-82
2023/02/19 10:25:16;;;;;;;0.40;0.40;;;15.90;56.40;;;;;;5014504;28;20030;-83
2023/02/19 10:27:42;;;;;;;0.93;0.50;;;15.90;56.30;;;;;;4996433;28;20427;-82
2023/02/19 10:30:33;;;;;;;0.60;0.40;;;16.00;56.30;;;;;;4996154;28;20356;-81
2023/02/19 10:33:11;;;;;;;0.50;0.40;;;16.10;56.50;;;;;;4984526;28;20029;-82
2023/02/19 10:35:53;;;;;;;0.45;0.45;;;16.10;56.10;;;;;;4996491;28;20038;-82
2023/02/19 10:38:22;;;;;;;1.17;0.30;;;16.20;55.20;;;;;;4996440;28;20030;-83
2023/02/19 10:41:02;;;;;;;0.50;0.35;;;16.20;54.70;;;;;;4996234;28;20415;-82
2023/02/19 10:43:33;;;;;;;1.20;0.38;;;16.30;53.80;;;;;;4996413;28;20054;-82
2023/02/19 10:46:21;;;;;;;0.90;0.47;;;16.40;53.70;;;;;;4996140;28;20033;-82
2023/02/19 10:49:03;;;;;;;1.05;0.50;;;16.40;53.50;;;;;;4994808;28;20495;-82
2023/02/19 10:51:38;;;;;;;0.63;0.40;;;16.50;53.30;;;;;;4996294;28;20025;-82
2023/02/19 10:54:19;;;;;;;0.47;0.30;;;16.60;53.40;;;;;;4995841;28;20081;-83
2023/02/19 10:56:46;;;;;;;0.32;0.30;;;16.60;52.40;;;;;;5012769;28;20410;-83
2023/02/19 10:59:18;;;;;;;1.00;0.30;;;16.70;52.10;;;;;;5013791;28;20077;-82
2023/02/19 11:02:02;;;;;;;0.40;0.30;;;16.70;52.20;;;;;;4995259;28;20029;-81
2023/02/19 11:04:34;;;;;;;0.75;0.30;;;16.80;52.10;;;;;;4993812;28;20029;-81
2023/02/19 11:07:17;;;;;;;0.20;0.20;;;16.80;51.30;;;;;;4980226;28;20434;-81
2023/02/19 11:09:46;;;;;;;0.60;0.60;;;16.80;51.50;;;;;;5011942;28;20060;-81
2023/02/19 11:12:15;;;;;;;1.10;0.60;;;16.90;51.60;;;;;;4987964;28;20479;-80
2023/02/19 11:14:43;;;;;;;0.32;0.32;;;16.90;51.70;;;;;;5013288;28;20022;-82
2023/02/19 11:17:25;;;;;;;0.35;0.35;;;16.90;51.00;;;;;;4995649;28;20026;-82
2023/02/19 11:20:04;;;;;;;3.22;0.30;;;16.80;51.20;;;;;;5012929;28;20533;-81
2023/02/19 11:22:41;;;;;;;0.55;0.30;;;16.80;51.10;;;;;;4992974;28;20026;-81
2023/02/19 11:25:13;;;;;;;0.20;0.20;;;16.80;50.50;;;;;;5013160;28;20113;-80
2023/02/19 11:28:21;;;;;;;0.43;0.22;;;16.80;51.10;;;;;;4994667;28;20028;-81
2023/02/19 11:30:47;;;;;;;0.30;0.30;;;16.80;51.30;;;;;;5024412;28;20033;-81
2023/02/19 11:33:21;;;;;;;2.38;0.32;;;16.90;51.20;;;;;;5025826;28;20045;-81
2023/02/19 11:35:48;;;;;;;0.47;0.47;;;16.90;50.20;;;;;;5013318;28;20022;-81
2023/02/19 11:38:18;;;;;;;5.60;0.60;;;16.90;50.80;;;;;;5013462;28;20030;-81
2023/02/19 11:41:04;;;;;;;0.98;0.88;;;16.90;51.10;;;;;;4995641;28;20030;-81
2023/02/19 11:43:51;;;;;;;2.80;0.40;;;16.90;51.50;;;;;;4995479;28;20476;-81
2023/02/19 11:46:58;;;;;;;4.00;0.45;;;17.00;51.30;;;;;;4995405;28;20061;-81
2023/02/19 11:49:54;;;;;;;0.30;0.30;;;17.00;51.00;;;;;;5002327;28;20045;-81
2023/02/19 11:52:43;;;;;;;0.35;0.25;;;17.00;51.10;;;;;;4983151;28;20065;-83
2023/02/19 11:55:32;;;;;;;0.63;0.40;;;16.90;51.20;;;;;;4995078;28;20030;-81
2023/02/19 11:58:30;;;;;;;3.58;0.60;;;16.90;50.80;;;;;;5013204;28;20022;-81
2023/02/19 12:01:19;;;;;;;0.90;0.50;;;16.80;51.40;;;;;;4998554;28;20077;-82
2023/02/19 12:04:19;;;;;;;0.20;0.20;;;16.70;53.40;;;;;;5025818;28;20030;-81
2023/02/19 12:06:48;;;;;;;0.82;0.30;;;16.50;53.00;;;;;;5027366;28;20448;-81
2023/02/19 12:09:32;;;;;;;0.22;0.22;;;16.40;53.70;;;;;;5020718;28;20054;-81
2023/02/19 12:12:17;;;;;;;;;;;16.30;54.50;;;;;;4997501;28;20022;-82
2023/02/19 12:14:43;;;;;;;;;;;16.20;54.40;;;;;;4997023;28;19909;-82
2023/02/19 12:17:25;;;;;;;0.75;0.35;;;16.30;54.30;;;;;;4996978;28;19951;-81
2023/02/19 12:20:12;;;;;;;3.05;0.40;;;16.30;54.00;;;;;;4996358;28;20060;-83
2023/02/19 12:23:03;;;;;;;0.50;0.40;;;16.30;53.70;;;;;;5013594;28;20026;-82
2023/02/19 12:25:48;;;;;;;0.70;0.40;;;16.30;53.40;;;;;;5014092;28;20029;-82
2023/02/19 12:28:32;;;;;;;1.20;0.52;;;16.30;53.20;;;;;;4995538;28;20487;-83
2023/02/19 12:31:12;;;;;;;0.68;0.57;;;16.30;53.30;;;;;;5013340;28;20037;-82
2023/02/19 12:34:08;;;;;;;1.00;0.50;;;16.40;53.10;;;;;;4996317;28;20072;-83
2023/02/19 12:36:56;;;;;;;0.25;0.25;;;16.40;53.10;;;;;;4998090;28;20509;-82
2023/02/19 12:39:55;;;;;;;1.58;0.50;;;16.50;52.00;;;;;;4999091;28;20386;-84
2023/02/19 12:42:52;;;;;;;3.67;0.60;;;16.60;52.50;;;;;;4996004;28;20472;-82
2023/02/19 12:45:29;;;;;;;2.20;0.40;;;16.80;52.80;;;;;;4995801;28;20080;-84
2023/02/19 12:48:11;;;;;;;0.68;0.68;;;16.90;51.70;;;;;;5003642;28;20030;-82
2023/02/19 12:50:39;;;;;;;3.42;0.70;;;16.90;51.20;;;;;;4997826;28;20112;-86
2023/02/19 12:53:14;;;;;;;0.95;0.50;;;17.00;50.80;;;;;;5000627;28;20403;-86
2023/02/19 12:55:45;;;;;;;1.63;0.75;;;17.00;49.90;;;;;;4998841;28;20018;-82
2023/02/19 12:58:27;;;;;;;2.22;1.17;;;16.90;50.20;;;;;;5015986;28;20030;-80
2023/02/19 13:00:57;;;;;;;2.40;0.95;;;17.00;50.40;;;;;;4998353;28;20479;-81
2023/02/19 13:03:42;;;;;;;1.17;0.70;;;16.90;49.80;;;;;;4998177;28;20084;-79
2023/02/19 13:06:21;;;;;;;1.80;0.80;;;16.90;49.30;;;;;;4998411;28;20053;-80
2023/02/19 13:08:56;;;;;;;3.92;1.13;;;16.90;49.40;;;;;;4998386;28;20061;-80
2023/02/19 13:11:31;;;;;;;2.90;0.70;;;16.80;49.00;;;;;;4998461;28;20025;-81
2023/02/19 13:14:13;;;;;;;1.20;0.57;;;16.70;48.80;;;;;;4998873;28;20036;-81
2023/02/19 13:16:44;;;;;;;1.30;0.77;;;16.60;49.50;;;;;;4997559;28;20422;-81
2023/02/19 13:19:19;;;;;;;0.68;0.38;;;16.60;49.70;;;;;;5014545;28;20026;-81
2023/02/19 13:24:40;;;;;;;0.88;0.50;;;16.60;50.10;;;;;;4975841;28;20069;-80
2023/02/19 13:27:22;;;;;;;2.88;0.68;;;16.50;49.80;;;;;;4975067;28;20122;-79
2023/02/19 13:30:19;;;;;;;1.95;0.73;;;16.50;50.20;;;;;;4976809;28;20018;-81
2023/02/19 13:32:52;;;;;;;0.82;0.68;;;16.40;50.30;;;;;;4977569;28;20026;-81
2023/02/19 13:35:46;;;;;;;1.35;0.77;;;16.40;50.10;;;;;;4978422;28;20082;-82
2023/02/19 13:38:14;;;;;;;0.70;0.60;;;16.30;50.10;;;;;;4980092;28;20499;-80
2023/02/19 13:40:58;;;;;;;0.98;0.50;;;16.30;50.40;;;;;;4985926;28;20054;-83